KLWS/LWS METAR and TAF weather

Enter ICAO airport designator
Station Type Date Time Source
KLWS METAR 2020/12/06 00:56 UTC NOAA

KLWS 060056Z 00000KT 10SM CLR 01/M04 A3022 RMK AO2 SLP250 T00111039


Station Type Date Time Source
KLWS Decoded METAR 2020/12/06 00:56 UTC NOAA

LEWISTON NEZ PERCE CO AIRPORT , ID, United States (KLWS) 46-22N 117-01W 438M
Dec 05, 2020 - 07:56 PM EST / 2020.12.06 0056 UTC
Wind: Calm:0
Visibility: 10 mile(s):0
Sky conditions: clear
Temperature: 34.0 F (1.1 C)
Dew Point: 25.0 F (-3.9 C)
Relative Humidity: 69%
Pressure (altimeter): 30.22 in. Hg (1023 hPa)
ob: KLWS 060056Z 00000KT 10SM CLR 01/M04 A3022 RMK AO2 SLP250 T00111039
cycle: 1

Station Type Date Time Source
KLWS TAF 2020/12/05 18:48 UTC NOAA

TAF KLWS 051744Z 0518/0618 13005KT 1/4SM FZFG BKN001
FM051930 10005KT 2SM BR SCT002
FM052100 27005KT P6SM SKC
FM060200 11003KT P6SM SKC
FM061200 30005KT 4SM BR SCT004

Example: see airport list